createdAt,value
2018-08-01T00:00:31.785Z,0
2018-08-01T00:01:32.363Z,0
2018-08-01T00:02:32.943Z,0
2018-08-01T00:03:33.521Z,0
2018-08-01T00:04:34.099Z,0
2018-08-01T00:05:34.678Z,0
2018-08-01T00:06:35.271Z,0
2018-08-01T00:07:35.866Z,0
2018-08-01T00:08:36.432Z,0
2018-08-01T00:09:37.009Z,0
2018-08-01T00:10:37.589Z,0
2018-08-01T00:11:38.168Z,0
2018-08-01T00:12:38.747Z,0
2018-08-01T00:13:39.327Z,0
2018-08-01T00:14:39.909Z,0
2018-08-01T00:15:40.505Z,0
2018-08-01T00:16:41.092Z,0
2018-08-01T00:17:41.672Z,0
2018-08-01T00:18:42.250Z,0
2018-08-01T00:19:42.828Z,0
2018-08-01T00:20:43.410Z,0
2018-08-01T00:21:43.988Z,0
2018-08-01T00:22:44.566Z,0
2018-08-01T00:23:45.145Z,0
2018-08-01T00:24:45.739Z,0
2018-08-01T00:25:46.319Z,0
2018-08-01T00:26:46.984Z,0
2018-08-01T00:27:47.477Z,0
2018-08-01T00:28:48.057Z,0
2018-08-01T00:29:48.648Z,0
2018-08-01T00:30:49.227Z,0
2018-08-01T00:31:49.804Z,0
2018-08-01T00:32:50.389Z,0
2018-08-01T00:33:50.965Z,0
2018-08-01T00:34:51.543Z,0
2018-08-01T00:35:52.121Z,0
2018-08-01T00:36:52.698Z,0
2018-08-01T00:37:53.278Z,0
2018-08-01T00:38:53.858Z,0
2018-08-01T00:39:54.438Z,0
2018-08-01T00:40:55.030Z,0
2018-08-01T00:41:55.609Z,0
2018-08-01T00:42:56.186Z,0
2018-08-01T00:43:56.764Z,0
2018-08-01T00:44:57.343Z,0
2018-08-01T00:45:57.924Z,0
2018-08-01T00:46:58.502Z,0
2018-08-01T00:47:59.081Z,0
2018-08-01T00:48:59.662Z,0
2018-08-01T00:50:00.261Z,0
2018-08-01T00:51:00.841Z,0
2018-08-01T00:52:01.419Z,0
2018-08-01T00:53:01.996Z,0
2018-08-01T00:54:02.579Z,0
2018-08-01T00:55:03.156Z,0
2018-08-01T00:56:03.733Z,0
2018-08-01T00:57:04.313Z,0
2018-08-01T00:58:04.890Z,0
2018-08-01T00:59:05.471Z,0
2018-08-01T01:00:06.060Z,0
2018-08-01T01:01:06.640Z,0
2018-08-01T01:02:07.219Z,0
2018-08-01T01:03:07.799Z,0
2018-08-01T01:04:08.377Z,0
2018-08-01T01:05:08.954Z,0
2018-08-01T01:06:09.532Z,0
2018-08-01T01:07:10.110Z,0
2018-08-01T01:08:10.691Z,0
2018-08-01T01:09:11.270Z,0
2018-08-01T01:10:11.848Z,0
2018-08-01T01:11:12.440Z,0
2018-08-01T01:12:13.018Z,0
2018-08-01T01:13:13.596Z,0
2018-08-01T01:14:14.189Z,0
2018-08-01T01:15:14.769Z,0
2018-08-01T01:16:15.349Z,0
2018-08-01T01:17:15.928Z,0
2018-08-01T01:18:16.506Z,0
2018-08-01T01:19:17.083Z,0
2018-08-01T01:20:17.665Z,0
2018-08-01T01:21:18.246Z,0
2018-08-01T01:22:18.822Z,0
2018-08-01T01:23:19.400Z,0
2018-08-01T01:24:19.979Z,0
2018-08-01T01:25:20.571Z,0
2018-08-01T01:26:21.151Z,0
2018-08-01T01:27:21.728Z,0
2018-08-01T01:28:22.307Z,0
2018-08-01T01:29:22.886Z,0
2018-08-01T01:30:23.464Z,0
2018-08-01T01:31:24.044Z,0
2018-08-01T01:32:24.623Z,0
2018-08-01T01:33:25.205Z,0
2018-08-01T01:34:25.783Z,0
2018-08-01T01:35:26.363Z,0
2018-08-01T01:36:26.947Z,0
2018-08-01T01:37:27.541Z,0
2018-08-01T01:38:28.120Z,0
2018-08-01T01:39:28.699Z,0
2018-08-01T01:40:29.280Z,0
2018-08-01T01:41:29.859Z,0
2018-08-01T01:42:30.456Z,0
2018-08-01T01:43:31.032Z,0
2018-08-01T01:44:31.610Z,0
2018-08-01T01:45:32.203Z,0
2018-08-01T01:46:32.782Z,0
2018-08-01T01:47:33.363Z,0
2018-08-01T01:48:33.943Z,0
2018-08-01T01:49:34.538Z,0
2018-08-01T01:50:35.116Z,0
2018-08-01T01:51:35.697Z,0
2018-08-01T01:52:36.278Z,0
2018-08-01T01:53:36.873Z,0
2018-08-01T01:54:37.453Z,0
2018-08-01T01:55:38.047Z,0
2018-08-01T01:56:38.627Z,0
2018-08-01T01:57:39.206Z,0
2018-08-01T01:58:39.787Z,0
2018-08-01T01:59:40.367Z,0
2018-08-01T02:00:40.964Z,0
2018-08-01T02:01:41.544Z,0
2018-08-01T02:02:42.125Z,0
2018-08-01T02:03:42.704Z,0
2018-08-01T02:04:43.282Z,0
2018-08-01T02:05:43.874Z,0
2018-08-01T02:06:44.454Z,0
2018-08-01T02:07:45.033Z,0
2018-08-01T02:08:45.626Z,0
2018-08-01T02:09:46.208Z,0
2018-08-01T02:10:46.786Z,0
2018-08-01T02:11:47.366Z,0
2018-08-01T02:12:47.946Z,0
2018-08-01T02:13:48.524Z,0
2018-08-01T02:14:49.104Z,0
2018-08-01T02:15:49.684Z,0
2018-08-01T02:16:50.262Z,0
2018-08-01T02:17:50.844Z,0
2018-08-01T02:18:51.421Z,0
2018-08-01T02:19:52.069Z,0
2018-08-01T02:20:52.594Z,0
2018-08-01T02:21:53.172Z,0
2018-08-01T02:22:53.754Z,0
2018-08-01T02:23:54.333Z,0
2018-08-01T02:24:54.911Z,0
2018-08-01T02:25:55.491Z,0
2018-08-01T02:26:56.071Z,0
2018-08-01T02:27:56.649Z,0
2018-08-01T02:28:57.226Z,0
2018-08-01T02:29:57.807Z,0
2018-08-01T02:30:58.385Z,0
2018-08-01T02:31:58.978Z,0
2018-08-01T02:32:59.558Z,0
2018-08-01T02:34:00.137Z,0
2018-08-01T02:35:00.715Z,0
2018-08-01T02:36:01.346Z,0
2018-08-01T02:37:01.897Z,0
2018-08-01T02:38:02.475Z,0
2018-08-01T02:39:03.069Z,0
2018-08-01T02:40:03.649Z,0
2018-08-01T02:41:04.225Z,0
2018-08-01T02:42:04.807Z,0
2018-08-01T02:43:05.463Z,0
2018-08-01T02:44:05.970Z,0
2018-08-01T02:45:06.560Z,0
2018-08-01T02:46:07.139Z,0
2018-08-01T02:47:07.720Z,0
2018-08-01T02:48:08.298Z,0
2018-08-01T02:49:08.882Z,0
2018-08-01T02:50:09.458Z,0
2018-08-01T02:51:10.053Z,0
2018-08-01T02:52:10.634Z,0
2018-08-01T02:53:11.229Z,0
2018-08-01T02:54:11.824Z,0
2018-08-01T02:55:12.398Z,0
2018-08-01T02:56:12.995Z,0
2018-08-01T02:57:13.570Z,0
2018-08-01T02:58:14.149Z,0
2018-08-01T02:59:14.730Z,0
2018-08-01T03:00:15.310Z,0
2018-08-01T03:01:15.903Z,0
2018-08-01T03:02:16.482Z,0
2018-08-01T03:03:17.062Z,0
2018-08-01T03:04:17.641Z,0
2018-08-01T03:05:18.226Z,0
2018-08-01T03:06:18.812Z,0
2018-08-01T03:07:19.408Z,0
2018-08-01T03:08:19.997Z,0
2018-08-01T03:09:20.581Z,0
2018-08-01T03:10:21.170Z,0
2018-08-01T03:11:21.768Z,0
2018-08-01T03:12:22.334Z,0
2018-08-01T03:13:22.913Z,0
2018-08-01T03:14:23.490Z,0
2018-08-01T03:15:24.069Z,0
2018-08-01T03:16:24.663Z,0
2018-08-01T03:17:25.339Z,0
2018-08-01T03:18:25.822Z,0
2018-08-01T03:19:26.400Z,0
2018-08-01T03:20:26.977Z,0
2018-08-01T03:21:27.558Z,0
2018-08-01T03:22:28.135Z,0
2018-08-01T03:23:28.713Z,0
2018-08-01T03:24:29.293Z,0
2018-08-01T03:25:29.870Z,0
2018-08-01T03:26:30.463Z,0
2018-08-01T03:27:31.044Z,0
2018-08-01T03:28:31.624Z,0
2018-08-01T03:29:32.218Z,0
2018-08-01T03:30:32.797Z,0
2018-08-01T03:31:33.376Z,0
2018-08-01T03:32:33.953Z,0
2018-08-01T03:33:34.533Z,0
2018-08-01T03:34:35.112Z,0
2018-08-01T03:35:35.707Z,0
2018-08-01T03:36:36.287Z,0
2018-08-01T03:37:36.867Z,0
2018-08-01T03:38:37.445Z,0
2018-08-01T03:39:38.024Z,0
2018-08-01T03:40:38.604Z,0
2018-08-01T03:41:39.181Z,0
2018-08-01T03:42:39.760Z,0
2018-08-01T03:43:40.339Z,0
2018-08-01T03:44:40.919Z,0
2018-08-01T03:45:41.500Z,0
2018-08-01T03:46:42.168Z,0
2018-08-01T03:47:42.657Z,0
2018-08-01T03:48:43.250Z,0
2018-08-01T03:49:43.829Z,0
2018-08-01T03:50:44.406Z,0
2018-08-01T03:51:44.986Z,0
2018-08-01T03:52:45.623Z,0
2018-08-01T03:53:46.145Z,0
2018-08-01T03:54:46.725Z,0
2018-08-01T03:55:47.304Z,0
2018-08-01T03:56:47.885Z,0
2018-08-01T03:57:48.478Z,0
2018-08-01T03:58:49.059Z,0
2018-08-01T03:59:49.638Z,0
2018-08-01T04:00:50.217Z,0
2018-08-01T04:01:50.797Z,0
2018-08-01T04:02:51.377Z,0
2018-08-01T04:03:51.955Z,0
2018-08-01T04:04:52.536Z,0
2018-08-01T04:05:53.115Z,0
2018-08-01T04:06:53.694Z,0
2018-08-01T04:07:54.273Z,0
2018-08-01T04:08:54.855Z,0
2018-08-01T04:09:55.433Z,0
2018-08-01T04:10:56.011Z,0
2018-08-01T04:11:56.592Z,0
2018-08-01T04:12:57.187Z,0
2018-08-01T04:13:57.767Z,0
2018-08-01T04:14:58.347Z,0
2018-08-01T04:15:58.927Z,0
2018-08-01T04:16:59.507Z,0
2018-08-01T04:18:00.092Z,0
2018-08-01T04:19:00.680Z,0
2018-08-01T04:20:01.259Z,0
2018-08-01T04:21:01.852Z,0
2018-08-01T04:22:02.447Z,0
2018-08-01T04:23:03.037Z,0
2018-08-01T04:24:03.614Z,0
2018-08-01T04:25:04.206Z,0
2018-08-01T04:26:04.789Z,0
2018-08-01T04:27:05.445Z,0
2018-08-01T04:28:05.961Z,0
2018-08-01T04:29:06.537Z,0
2018-08-01T04:30:07.118Z,0
2018-08-01T04:31:07.702Z,0
2018-08-01T04:32:08.297Z,0
2018-08-01T04:33:08.882Z,5
2018-08-01T04:34:09.473Z,5
2018-08-01T04:35:10.053Z,5
2018-08-01T04:36:10.646Z,5
2018-08-01T04:37:11.228Z,5
2018-08-01T04:38:11.808Z,5
2018-08-01T04:39:12.389Z,5
2018-08-01T04:40:12.971Z,5
2018-08-01T04:41:13.552Z,5
2018-08-01T04:42:14.132Z,5
2018-08-01T04:43:14.716Z,5
2018-08-01T04:44:15.296Z,5
2018-08-01T04:45:15.877Z,5
2018-08-01T04:46:16.459Z,5
2018-08-01T04:47:17.039Z,5
2018-08-01T04:48:17.621Z,5
2018-08-01T04:49:18.202Z,5
2018-08-01T04:50:18.782Z,5
2018-08-01T04:51:19.363Z,5
2018-08-01T04:52:19.967Z,5
2018-08-01T04:53:20.539Z,5
2018-08-01T04:54:21.133Z,5
2018-08-01T04:55:21.714Z,5
2018-08-01T04:56:22.294Z,5
2018-08-01T04:57:22.876Z,5
2018-08-01T04:58:23.490Z,5
2018-08-01T04:59:24.039Z,5
2018-08-01T05:00:24.623Z,5
2018-08-01T05:01:25.203Z,5
2018-08-01T05:02:25.800Z,5
2018-08-01T05:03:26.381Z,10
2018-08-01T05:04:26.962Z,10
2018-08-01T05:05:27.545Z,10
2018-08-01T05:06:28.142Z,10
2018-08-01T05:07:28.723Z,10
2018-08-01T05:08:29.319Z,10
2018-08-01T05:09:29.902Z,10
2018-08-01T05:10:30.486Z,10
2018-08-01T05:11:31.080Z,10
2018-08-01T05:12:31.668Z,10
2018-08-01T05:13:32.244Z,10
2018-08-01T05:14:32.863Z,10
2018-08-01T05:15:33.412Z,10
2018-08-01T05:16:34.008Z,10
2018-08-01T05:17:34.589Z,10
2018-08-01T05:18:35.172Z,10
2018-08-01T05:19:35.755Z,10
2018-08-01T05:20:36.339Z,10
2018-08-01T05:21:36.920Z,10
2018-08-01T05:22:37.502Z,10
2018-08-01T05:23:38.086Z,10
2018-08-01T05:24:38.667Z,10
2018-08-01T05:25:39.250Z,10
2018-08-01T05:26:39.834Z,10
2018-08-01T05:27:40.430Z,10
2018-08-01T05:28:41.020Z,10
2018-08-01T05:29:41.596Z,10
2018-08-01T05:30:42.178Z,10
2018-08-01T05:31:42.774Z,10
2018-08-01T05:32:43.356Z,10
2018-08-01T05:33:43.939Z,10
2018-08-01T05:34:44.522Z,10
2018-08-01T05:35:45.105Z,10
2018-08-01T05:36:45.686Z,10
2018-08-01T05:37:46.269Z,10
2018-08-01T05:38:46.851Z,10
2018-08-01T05:39:47.506Z,10
2018-08-01T05:40:48.032Z,15
2018-08-01T05:41:48.660Z,15
2018-08-01T05:42:49.196Z,15
2018-08-01T05:43:49.780Z,15
2018-08-01T05:44:50.362Z,15
2018-08-01T05:45:50.946Z,15
2018-08-01T05:46:51.548Z,15
2018-08-01T05:47:52.141Z,15
2018-08-01T05:48:52.741Z,15
2018-08-01T05:49:53.321Z,15
2018-08-01T05:50:53.943Z,15
2018-08-01T05:51:54.486Z,15
2018-08-01T05:52:55.069Z,15
2018-08-01T05:53:55.651Z,15
2018-08-01T05:54:56.236Z,15
2018-08-01T05:55:56.817Z,15
2018-08-01T05:56:57.402Z,15
2018-08-01T05:57:57.994Z,15
2018-08-01T05:58:58.589Z,15
2018-08-01T05:59:59.185Z,15
2018-08-01T06:00:59.770Z,15
2018-08-01T06:02:00.352Z,15
2018-08-01T06:03:00.937Z,15
2018-08-01T06:04:01.520Z,15
2018-08-01T06:05:02.114Z,15
2018-08-01T06:06:02.703Z,15
2018-08-01T06:07:03.279Z,15
2018-08-01T06:08:03.860Z,15
2018-08-01T06:09:04.445Z,15
2018-08-01T06:10:05.028Z,15
2018-08-01T06:11:05.610Z,15
2018-08-01T06:12:06.193Z,15
2018-08-01T06:13:06.776Z,15
2018-08-01T06:14:07.358Z,15
2018-08-01T06:15:07.957Z,20
2018-08-01T06:16:08.537Z,15
2018-08-01T06:17:09.118Z,15
2018-08-01T06:18:09.702Z,15
2018-08-01T06:19:10.284Z,15
2018-08-01T06:20:10.872Z,15
2018-08-01T06:21:11.467Z,15
2018-08-01T06:22:12.049Z,15
2018-08-01T06:23:12.633Z,15
2018-08-01T06:24:13.218Z,15
2018-08-01T06:25:13.816Z,15
2018-08-01T06:26:14.400Z,15
2018-08-01T06:27:14.980Z,15
2018-08-01T06:28:15.564Z,15
2018-08-01T06:29:16.158Z,15
2018-08-01T06:30:16.745Z,15
2018-08-01T06:31:17.326Z,15
2018-08-01T06:32:17.908Z,15
2018-08-01T06:33:18.491Z,15
2018-08-01T06:34:19.087Z,15
2018-08-01T06:35:19.673Z,15
2018-08-01T06:36:20.251Z,20
2018-08-01T06:37:20.838Z,20
2018-08-01T06:38:21.471Z,20
2018-08-01T06:39:22.028Z,20
2018-08-01T06:40:22.611Z,20
2018-08-01T06:41:23.198Z,20
2018-08-01T06:42:23.777Z,20
2018-08-01T06:43:24.359Z,20
2018-08-01T06:44:24.942Z,20
2018-08-01T06:45:25.524Z,20
2018-08-01T06:46:26.109Z,20
2018-08-01T06:47:26.692Z,20
2018-08-01T06:48:27.275Z,20
2018-08-01T06:49:27.860Z,20
2018-08-01T06:50:28.442Z,20
2018-08-01T06:51:29.040Z,20
2018-08-01T06:52:29.624Z,20
2018-08-01T06:53:30.208Z,20
2018-08-01T06:54:30.809Z,20
2018-08-01T06:55:31.390Z,20
2018-08-01T06:56:31.972Z,20
2018-08-01T06:57:32.571Z,20
2018-08-01T06:58:33.154Z,20
2018-08-01T06:59:33.740Z,20
2018-08-01T07:00:34.360Z,25
2018-08-01T07:01:34.907Z,25
2018-08-01T07:02:35.504Z,25
2018-08-01T07:03:36.093Z,25
2018-08-01T07:04:36.687Z,25
2018-08-01T07:05:37.275Z,20
2018-08-01T07:06:37.921Z,20
2018-08-01T07:07:38.444Z,25
2018-08-01T07:08:39.036Z,25
2018-08-01T07:09:39.620Z,25
2018-08-01T07:10:40.203Z,25
2018-08-01T07:11:40.790Z,25
2018-08-01T07:12:41.420Z,25
2018-08-01T07:13:41.956Z,25
2018-08-01T07:14:42.544Z,25
2018-08-01T07:15:43.121Z,25
2018-08-01T07:16:43.705Z,30
2018-08-01T07:17:44.289Z,25
2018-08-01T07:18:44.872Z,30
2018-08-01T07:19:45.457Z,25
2018-08-01T07:20:46.043Z,25
2018-08-01T07:21:46.641Z,25
2018-08-01T07:22:47.224Z,25
2018-08-01T07:23:47.809Z,25
2018-08-01T07:24:48.393Z,25
2018-08-01T07:25:49.000Z,30
2018-08-01T07:26:49.592Z,25
2018-08-01T07:27:50.194Z,25
2018-08-01T07:28:50.776Z,30
2018-08-01T07:29:51.361Z,25
2018-08-01T07:30:51.947Z,30
2018-08-01T07:31:52.532Z,25
2018-08-01T07:32:53.130Z,30
2018-08-01T07:33:53.715Z,30
2018-08-01T07:34:54.299Z,30
2018-08-01T07:35:54.886Z,30
2018-08-01T07:36:55.467Z,30
2018-08-01T07:37:56.053Z,30
2018-08-01T07:38:56.639Z,30
2018-08-01T07:39:57.220Z,30
2018-08-01T07:40:57.805Z,30
2018-08-01T07:41:58.388Z,30
2018-08-01T07:42:59.033Z,30
2018-08-01T07:43:59.555Z,30
2018-08-01T07:45:00.140Z,30
2018-08-01T07:46:00.726Z,30
2018-08-01T07:47:01.309Z,30
2018-08-01T07:48:01.894Z,30
2018-08-01T07:49:02.481Z,30
2018-08-01T07:50:03.082Z,30
2018-08-01T07:51:03.664Z,25
2018-08-01T07:52:04.255Z,25
2018-08-01T07:53:04.836Z,30
2018-08-01T07:54:05.441Z,25
2018-08-01T07:55:06.005Z,25
2018-08-01T07:56:06.587Z,30
2018-08-01T07:57:07.224Z,25
2018-08-01T07:58:07.784Z,25
2018-08-01T07:59:08.371Z,25
2018-08-01T08:00:08.969Z,30
2018-08-01T08:01:09.554Z,30
2018-08-01T08:02:10.140Z,30
2018-08-01T08:03:10.767Z,25
2018-08-01T08:04:11.306Z,30
2018-08-01T08:05:11.892Z,25
2018-08-01T08:06:12.475Z,30
2018-08-01T08:07:13.062Z,25
2018-08-01T08:08:13.647Z,30
2018-08-01T08:09:14.232Z,30
2018-08-01T08:10:14.818Z,25
2018-08-01T08:11:15.403Z,30
2018-08-01T08:12:15.989Z,30
2018-08-01T08:13:16.587Z,25
2018-08-01T08:14:17.172Z,25
2018-08-01T08:15:17.770Z,30
2018-08-01T08:16:18.369Z,30
2018-08-01T08:17:18.954Z,30
2018-08-01T08:18:19.538Z,30
2018-08-01T08:19:20.123Z,25
2018-08-01T08:20:20.709Z,25
2018-08-01T08:21:21.293Z,25
2018-08-01T08:22:21.879Z,25
2018-08-01T08:23:22.477Z,25
2018-08-01T08:24:23.080Z,25
2018-08-01T08:25:23.660Z,30
2018-08-01T08:26:24.257Z,25
2018-08-01T08:27:24.845Z,25
2018-08-01T08:28:25.427Z,25
2018-08-01T08:29:26.012Z,30
2018-08-01T08:30:26.599Z,30
2018-08-01T08:31:27.184Z,30
2018-08-01T08:32:27.771Z,30
2018-08-01T08:33:28.355Z,30
2018-08-01T08:34:28.943Z,30
2018-08-01T08:35:29.528Z,25
2018-08-01T08:36:30.109Z,25
2018-08-01T08:37:30.696Z,30
2018-08-01T08:38:31.280Z,30
2018-08-01T08:39:31.865Z,35
2018-08-01T08:40:32.456Z,35
2018-08-01T08:41:33.036Z,35
2018-08-01T08:42:33.635Z,35
2018-08-01T08:43:34.221Z,35
2018-08-01T08:44:34.806Z,30
2018-08-01T08:45:35.391Z,30
2018-08-01T08:46:35.978Z,35
2018-08-01T08:47:36.562Z,30
2018-08-01T08:48:37.283Z,25
2018-08-01T08:49:37.734Z,25
2018-08-01T08:50:38.331Z,25
2018-08-01T08:51:38.917Z,30
2018-08-01T08:52:39.503Z,30
2018-08-01T08:53:40.114Z,35
2018-08-01T08:54:40.672Z,35
2018-08-01T08:55:41.258Z,30
2018-08-01T08:56:41.840Z,30
2018-08-01T08:57:42.427Z,30
2018-08-01T08:58:43.011Z,30
2018-08-01T08:59:43.598Z,30
2018-08-01T09:00:44.192Z,30
2018-08-01T09:01:44.769Z,30
2018-08-01T09:02:45.356Z,30
2018-08-01T09:03:45.955Z,30
2018-08-01T09:04:46.540Z,30
2018-08-01T09:05:47.125Z,30
2018-08-01T09:06:47.710Z,30
2018-08-01T09:07:48.297Z,30
2018-08-01T09:08:48.881Z,25
2018-08-01T09:09:49.466Z,30
2018-08-01T09:10:50.054Z,25
2018-08-01T09:11:50.637Z,30
2018-08-01T09:12:51.222Z,30
2018-08-01T09:13:51.809Z,30
2018-08-01T09:14:52.394Z,25
2018-08-01T09:15:52.979Z,25
2018-08-01T09:16:53.565Z,30
2018-08-01T09:17:54.170Z,30
2018-08-01T09:18:54.753Z,25
2018-08-01T09:19:55.337Z,25
2018-08-01T09:20:55.922Z,25
2018-08-01T09:21:56.507Z,25
2018-08-01T09:22:57.092Z,25
2018-08-01T09:23:57.678Z,25
2018-08-01T09:24:58.262Z,25
2018-08-01T09:25:58.845Z,25
2018-08-01T09:26:59.431Z,25
2018-08-01T09:28:00.017Z,25
2018-08-01T09:29:00.602Z,30
2018-08-01T09:30:01.188Z,30
2018-08-01T09:31:01.771Z,35
2018-08-01T09:32:02.359Z,30
2018-08-01T09:33:02.955Z,30
2018-08-01T09:34:03.539Z,30
2018-08-01T09:35:04.126Z,30
2018-08-01T09:36:04.714Z,30
2018-08-01T09:37:05.297Z,30
2018-08-01T09:38:05.879Z,30
2018-08-01T09:39:06.465Z,30
2018-08-01T09:40:07.065Z,30
2018-08-01T09:41:07.652Z,30
2018-08-01T09:42:08.242Z,35
2018-08-01T09:43:08.824Z,35
2018-08-01T09:44:09.426Z,35
2018-08-01T09:45:10.013Z,35
2018-08-01T09:46:10.599Z,35
2018-08-01T09:47:11.183Z,35
2018-08-01T09:48:11.772Z,40
2018-08-01T09:49:12.368Z,40
2018-08-01T09:50:12.954Z,40
2018-08-01T09:51:13.540Z,40
2018-08-01T09:52:14.125Z,35
2018-08-01T09:53:14.963Z,35
2018-08-01T09:54:15.512Z,40
2018-08-01T09:55:16.407Z,40
2018-08-01T09:56:16.466Z,40
2018-08-01T09:57:17.054Z,40
2018-08-01T09:58:17.639Z,30
2018-08-01T09:59:18.223Z,35
2018-08-01T10:00:18.811Z,35
2018-08-01T10:01:19.392Z,40
2018-08-01T10:02:19.978Z,40
2018-08-01T10:03:20.577Z,40
2018-08-01T10:04:21.164Z,40
2018-08-01T10:05:21.748Z,40
2018-08-01T10:06:22.335Z,40
2018-08-01T10:07:22.921Z,40
2018-08-01T10:08:23.504Z,35
2018-08-01T10:09:24.089Z,35
2018-08-01T10:10:24.674Z,40
2018-08-01T10:11:25.261Z,40
2018-08-01T10:12:25.846Z,30
2018-08-01T10:13:26.432Z,35
2018-08-01T10:14:27.019Z,40
2018-08-01T10:15:27.620Z,35
2018-08-01T10:16:28.205Z,35
2018-08-01T10:17:28.791Z,40
2018-08-01T10:18:29.378Z,40
2018-08-01T10:19:29.961Z,35
2018-08-01T10:20:30.562Z,40
2018-08-01T10:21:31.148Z,40
2018-08-01T10:22:31.732Z,40
2018-08-01T10:23:32.320Z,40
2018-08-01T10:24:32.908Z,40
2018-08-01T10:25:33.492Z,40
2018-08-01T10:26:34.076Z,40
2018-08-01T10:27:34.755Z,45
2018-08-01T10:28:35.246Z,45
2018-08-01T10:29:35.833Z,45
2018-08-01T10:30:36.421Z,45
2018-08-01T10:31:37.006Z,45
2018-08-01T10:32:37.606Z,50
2018-08-01T10:33:38.192Z,45
2018-08-01T10:34:38.782Z,45
2018-08-01T10:35:39.469Z,45
2018-08-01T10:36:39.951Z,45
2018-08-01T10:37:40.549Z,40
2018-08-01T10:38:41.149Z,35
2018-08-01T10:39:41.734Z,35
2018-08-01T10:40:42.324Z,35
2018-08-01T10:41:42.923Z,35
2018-08-01T10:42:43.526Z,40
2018-08-01T10:43:44.109Z,40
2018-08-01T10:44:44.700Z,35
2018-08-01T10:45:45.293Z,35
2018-08-01T10:46:45.879Z,35
2018-08-01T10:47:46.466Z,40
2018-08-01T10:48:47.052Z,35
2018-08-01T10:49:47.636Z,35
2018-08-01T10:50:48.232Z,35
2018-08-01T10:51:48.812Z,35
2018-08-01T10:52:49.392Z,35
2018-08-01T10:53:50.035Z,35
2018-08-01T10:54:50.580Z,35
2018-08-01T10:55:51.165Z,35
2018-08-01T10:56:51.752Z,35
2018-08-01T10:57:52.352Z,35
2018-08-01T10:58:52.937Z,35
2018-08-01T10:59:53.556Z,35
2018-08-01T11:00:54.125Z,35
2018-08-01T11:01:54.712Z,35
2018-08-01T11:02:55.298Z,35
2018-08-01T11:03:55.885Z,35
2018-08-01T11:04:56.477Z,35
2018-08-01T11:05:57.071Z,35
2018-08-01T11:06:57.671Z,35
2018-08-01T11:07:58.256Z,35
2018-08-01T11:08:58.839Z,35
2018-08-01T11:09:59.426Z,35
2018-08-01T11:11:00.014Z,35
2018-08-01T11:12:00.597Z,35
2018-08-01T11:13:01.184Z,40
2018-08-01T11:14:01.772Z,40
2018-08-01T11:15:02.372Z,45
2018-08-01T11:16:02.970Z,45
2018-08-01T11:17:03.562Z,45
2018-08-01T11:18:04.223Z,45
2018-08-01T11:19:04.743Z,45
2018-08-01T11:20:05.331Z,45
2018-08-01T11:21:05.949Z,45
2018-08-01T11:22:06.537Z,40
2018-08-01T11:23:07.089Z,40
2018-08-01T11:24:07.683Z,45
2018-08-01T11:25:08.262Z,45
2018-08-01T11:26:08.848Z,45
2018-08-01T11:27:09.435Z,45
2018-08-01T11:28:10.041Z,45
2018-08-01T11:29:10.643Z,45
2018-08-01T11:30:11.227Z,40
2018-08-01T11:31:11.813Z,40
2018-08-01T11:32:12.399Z,40
2018-08-01T11:33:12.984Z,35
2018-08-01T11:34:13.571Z,35
2018-08-01T11:35:14.156Z,35
2018-08-01T11:36:14.743Z,35
2018-08-01T11:37:15.345Z,35
2018-08-01T11:38:15.946Z,35
2018-08-01T11:39:16.549Z,35
2018-08-01T11:40:17.134Z,35
2018-08-01T11:41:17.721Z,35
2018-08-01T11:42:18.311Z,35
2018-08-01T11:43:18.892Z,35
2018-08-01T11:44:19.477Z,35
2018-08-01T11:45:20.063Z,35
2018-08-01T11:46:20.853Z,35
2018-08-01T11:47:21.447Z,35
2018-08-01T11:48:22.039Z,35
2018-08-01T11:49:22.626Z,35
2018-08-01T11:50:23.213Z,35
2018-08-01T11:51:23.799Z,35
2018-08-01T11:52:24.400Z,35
2018-08-01T11:53:24.987Z,40
2018-08-01T11:54:25.575Z,40
2018-08-01T11:55:26.162Z,35
2018-08-01T11:56:26.748Z,35
2018-08-01T11:57:27.334Z,35
2018-08-01T11:58:27.923Z,40
2018-08-01T11:59:28.508Z,40
2018-08-01T12:00:29.095Z,40
2018-08-01T12:01:29.682Z,35
2018-08-01T12:02:30.268Z,35
2018-08-01T12:03:30.855Z,35
2018-08-01T12:04:31.439Z,35
2018-08-01T12:05:32.041Z,35
2018-08-01T12:06:32.626Z,35
2018-08-01T12:07:33.213Z,35
2018-08-01T12:08:33.809Z,35
2018-08-01T12:09:34.492Z,35
2018-08-01T12:10:34.997Z,35
2018-08-01T12:11:35.591Z,35
2018-08-01T12:12:36.187Z,35
2018-08-01T12:13:36.791Z,35
2018-08-01T12:14:37.395Z,35
2018-08-01T12:15:37.987Z,35
2018-08-01T12:16:38.581Z,35
2018-08-01T12:18:54.671Z,35
2018-08-01T12:19:55.276Z,35
2018-08-01T12:20:55.865Z,35
2018-08-01T12:21:56.450Z,35
2018-08-01T12:22:57.038Z,35
2018-08-01T12:23:57.621Z,35
2018-08-01T12:24:58.206Z,35
2018-08-01T12:25:58.809Z,35
2018-08-01T12:26:59.391Z,45
2018-08-01T12:27:59.980Z,45
2018-08-01T12:29:00.564Z,40
2018-08-01T12:30:01.157Z,45
2018-08-01T12:31:01.739Z,45
2018-08-01T12:32:02.326Z,45
2018-08-01T12:33:02.912Z,45
2018-08-01T12:34:03.498Z,45
2018-08-01T12:35:04.088Z,50
2018-08-01T12:36:04.672Z,45
2018-08-01T12:37:05.258Z,45
2018-08-01T12:38:05.846Z,45
2018-08-01T12:39:06.434Z,40
2018-08-01T12:40:07.021Z,40
2018-08-01T12:41:07.605Z,40
2018-08-01T12:42:08.229Z,35
2018-08-01T12:43:08.777Z,35
2018-08-01T12:44:09.363Z,35
2018-08-01T12:45:09.951Z,35
2018-08-01T12:46:10.537Z,35
2018-08-01T12:47:11.123Z,35
2018-08-01T12:48:11.709Z,35
2018-08-01T12:49:12.296Z,35
2018-08-01T12:50:12.882Z,40
2018-08-01T12:51:13.468Z,40
2018-08-01T12:52:14.059Z,40
2018-08-01T12:53:14.645Z,35
2018-08-01T12:54:15.234Z,40
2018-08-01T12:55:15.880Z,40
2018-08-01T12:56:16.410Z,40
2018-08-01T12:57:16.997Z,40
2018-08-01T12:58:17.586Z,40
2018-08-01T12:59:18.174Z,40
2018-08-01T13:00:18.774Z,40
2018-08-01T13:01:19.364Z,40
2018-08-01T13:02:19.950Z,40
2018-08-01T13:03:20.535Z,35
2018-08-01T13:04:21.125Z,40
2018-08-01T13:05:21.710Z,35
2018-08-01T13:06:22.313Z,35
2018-08-01T13:07:22.898Z,35
2018-08-01T13:08:23.484Z,35
2018-08-01T13:09:24.082Z,35
2018-08-01T13:10:24.776Z,40
2018-08-01T13:11:25.272Z,40
2018-08-01T13:12:25.858Z,40
2018-08-01T13:13:26.445Z,45
2018-08-01T13:14:27.035Z,45
2018-08-01T13:15:27.621Z,45
2018-08-01T13:16:28.209Z,45
2018-08-01T13:17:28.796Z,40
2018-08-01T13:18:29.385Z,40
2018-08-01T13:19:29.972Z,40
2018-08-01T13:20:30.560Z,40
2018-08-01T13:21:31.163Z,40
2018-08-01T13:22:31.751Z,40
2018-08-01T13:23:32.341Z,40
2018-08-01T13:24:32.927Z,40
2018-08-01T13:25:33.515Z,40
2018-08-01T13:26:34.102Z,40
2018-08-01T13:27:34.693Z,40
2018-08-01T13:28:35.280Z,45
2018-08-01T13:29:35.873Z,45
2018-08-01T13:30:36.473Z,45
2018-08-01T13:31:37.058Z,45
2018-08-01T13:32:37.702Z,45
2018-08-01T13:33:38.233Z,45
2018-08-01T13:34:38.822Z,45
2018-08-01T13:35:39.412Z,45
2018-08-01T13:36:40.014Z,45
2018-08-01T13:37:40.605Z,45
2018-08-01T13:38:41.202Z,45
2018-08-01T13:39:41.783Z,45
2018-08-01T13:40:42.371Z,40
2018-08-01T13:41:42.957Z,40
2018-08-01T13:42:43.544Z,40
2018-08-01T13:43:44.133Z,35
2018-08-01T13:44:44.737Z,35
2018-08-01T13:45:45.337Z,35
2018-08-01T13:46:45.924Z,35
2018-08-01T13:47:46.527Z,35
2018-08-01T13:48:47.111Z,35
2018-08-01T13:49:47.695Z,35
2018-08-01T13:50:48.283Z,35
2018-08-01T13:51:48.884Z,35
2018-08-01T13:52:49.472Z,35
2018-08-01T13:53:50.058Z,35
2018-08-01T13:54:50.644Z,35
2018-08-01T13:55:51.231Z,35
2018-08-01T13:56:51.830Z,35
2018-08-01T13:57:52.418Z,35
2018-08-01T13:58:53.003Z,35
2018-08-01T13:59:53.588Z,35
2018-08-01T14:00:54.177Z,35
2018-08-01T14:01:54.763Z,35
2018-08-01T14:02:55.351Z,35
2018-08-01T14:03:55.936Z,35
2018-08-01T14:04:56.523Z,35
2018-08-01T14:05:57.126Z,35
2018-08-01T14:06:57.712Z,35
2018-08-01T14:07:58.299Z,35
2018-08-01T14:08:58.901Z,35
2018-08-01T14:09:59.489Z,35
2018-08-01T14:11:00.074Z,35
2018-08-01T14:12:00.660Z,35
2018-08-01T14:13:01.247Z,30
2018-08-01T14:14:01.834Z,30
2018-08-01T14:15:02.421Z,30
2018-08-01T14:16:03.007Z,30
2018-08-01T14:17:03.611Z,30
2018-08-01T14:18:04.194Z,30
2018-08-01T14:19:04.805Z,30
2018-08-01T14:20:05.396Z,30
2018-08-01T14:21:05.980Z,30
2018-08-01T14:22:06.567Z,30
2018-08-01T14:23:07.154Z,30
2018-08-01T14:24:07.739Z,30
2018-08-01T14:25:08.328Z,30
2018-08-01T14:26:08.912Z,30
2018-08-01T14:27:09.500Z,30
2018-08-01T14:28:10.085Z,30
2018-08-01T14:29:10.669Z,30
2018-08-01T14:30:11.258Z,30
2018-08-01T14:31:11.844Z,30
2018-08-01T14:32:12.445Z,30
2018-08-01T14:33:13.090Z,30
2018-08-01T14:34:13.619Z,30
2018-08-01T14:35:14.205Z,30
2018-08-01T14:36:14.791Z,30